Time;durP1;ratioP1;P1;durP2;ratioP2;P2;SDS_P1;SDS_P2;PMS_P1;PMS_P2;Temp;Humidity;BMP_temperature;BMP_pressure;BME280_temperature;BME280_humidity;BME280_pressure;Samples;Min_cycle;Max_cycle;Signal;HPM_P1;HPM_P2
2022/05/26 00:01:19;;;;;;;2.33;1.20;;;;;;;16.09;51.28;98903.06;1721461;81;20980;-76
2022/05/26 00:03:47;;;;;;;3.25;1.20;;;;;;;16.09;51.28;98903.06;1709632;82;20964;-76
2022/05/26 00:06:17;;;;;;;1.72;1.22;;;;;;;16.09;51.15;98907.47;1721291;81;20991;-76
2022/05/26 00:08:45;;;;;;;3.42;1.15;;;;;;;16.09;51.15;98907.47;1733851;81;21765;-76
2022/05/26 00:11:15;;;;;;;4.22;1.17;;;;;;;16.12;50.88;98913.80;1725392;81;21555;-76
2022/05/26 00:13:41;;;;;;;3.25;1.57;;;;;;;16.14;50.49;98911.91;1727449;81;21027;-76
2022/05/26 00:16:08;;;;;;;1.60;1.50;;;;;;;16.16;50.47;98911.33;1714946;81;21031;-76
2022/05/26 00:18:36;;;;;;;1.72;1.05;;;;;;;16.16;50.46;98907.39;1727945;81;21016;-76
2022/05/26 00:21:03;;;;;;;1.57;1.12;;;;;;;16.19;50.11;98905.83;1711562;81;21112;-76
2022/05/26 00:23:30;;;;;;;1.30;1.10;;;;;;;16.21;49.79;98903.94;1747788;81;21015;-76
2022/05/26 00:25:56;;;;;;;2.12;1.25;;;;;;;16.22;49.47;98909.55;1715259;81;20987;-76
2022/05/26 00:28:23;;;;;;;2.87;0.93;;;;;;;16.27;49.37;98906.59;1712679;81;21237;-76
2022/05/26 00:30:49;;;;;;;2.75;1.12;;;;;;;16.27;49.37;98906.59;1726791;81;21081;-76
2022/05/26 00:33:17;;;;;;;4.12;0.90;;;;;;;16.29;50.79;98908.63;1721328;81;21462;-76
2022/05/26 00:35:44;;;;;;;3.67;1.10;;;;;;;16.28;52.48;98906.95;1712741;81;21631;-76
2022/05/26 00:38:13;;;;;;;2.42;1.27;;;;;;;16.28;52.48;98906.95;1720129;81;21082;-78
2022/05/26 00:40:41;;;;;;;2.77;1.50;;;;;;;16.23;53.57;98898.58;1737540;81;20975;-76
2022/05/26 00:43:08;;;;;;;2.92;1.30;;;;;;;16.17;55.74;98895.48;1713373;82;20968;-76
2022/05/26 00:45:55;;;;;;;2.87;1.20;;;;;;;16.09;57.17;98890.41;1732200;81;21862;-77
2022/05/26 00:48:24;;;;;;;3.90;1.40;;;;;;;16.00;59.08;98890.59;1734756;81;20971;-76
2022/05/26 00:50:54;;;;;;;3.00;1.20;;;;;;;15.88;60.61;98884.11;1715970;82;21006;-77
2022/05/26 00:53:32;;;;;;;6.40;1.55;;;;;;;15.74;61.43;98885.95;1713502;81;21683;-75
2022/05/26 00:56:18;;;;;;;2.83;1.35;;;;;;;15.64;62.61;98895.40;1738803;81;21007;-75
2022/05/26 00:58:49;;;;;;;4.70;1.37;;;;;;;15.55;64.25;98895.20;1720255;81;21236;-75
2022/05/26 01:01:15;;;;;;;2.67;1.62;;;;;;;15.44;65.39;98890.70;1725170;81;21022;-76
2022/05/26 01:03:50;;;;;;;3.20;1.50;;;;;;;15.32;66.10;98888.48;1731636;81;21129;-75
2022/05/26 01:06:35;;;;;;;1.42;1.20;;;;;;;15.25;66.69;98886.38;1728741;81;21181;-76
2022/05/26 01:09:04;;;;;;;2.65;1.35;;;;;;;15.21;67.13;98887.06;1721746;81;21063;-75
2022/05/26 01:11:34;;;;;;;3.22;1.40;;;;;;;15.17;67.52;98890.87;1715491;81;21156;-76
2022/05/26 01:14:07;;;;;;;5.37;1.70;;;;;;;15.12;67.79;98895.11;1713743;81;21010;-76
2022/05/26 01:16:45;;;;;;;2.40;1.37;;;;;;;15.11;67.66;98888.19;1710370;81;21039;-76
2022/05/26 01:19:49;;;;;;;4.00;1.32;;;;;;;15.10;68.10;98880.44;1717621;81;21090;-75
2022/05/26 01:22:41;;;;;;;3.35;1.60;;;;;;;15.08;67.16;98888.39;1681802;82;21002;-75
2022/05/26 01:25:43;;;;;;;4.33;1.47;;;;;;;15.05;66.45;98878.13;1718405;81;21449;-75
2022/05/26 01:28:52;;;;;;;1.20;1.07;;;;;;;15.01;66.07;98875.81;1713462;81;20967;-76
2022/05/26 01:32:07;;;;;;;2.12;1.20;;;;;;;14.96;65.95;98874.84;1732522;81;21043;-75
2022/05/26 01:35:01;;;;;;;3.35;1.25;;;;;;;14.93;65.98;98877.67;1707252;81;21037;-76
2022/05/26 01:37:49;;;;;;;2.70;1.20;;;;;;;14.91;67.06;98892.65;1712411;81;20962;-76
2022/05/26 01:40:21;;;;;;;2.85;1.40;;;;;;;14.89;66.36;98904.16;1714794;81;21239;-78
2022/05/26 01:43:14;;;;;;;3.08;1.90;;;;;;;14.85;67.31;98899.60;1718176;81;21450;-76
2022/05/26 01:46:01;;;;;;;4.37;1.57;;;;;;;14.78;68.78;98894.44;1722737;81;21696;-77
2022/05/26 01:48:39;;;;;;;7.70;1.82;;;;;;;14.66;70.64;98891.31;1719463;81;20977;-76
2022/05/26 01:51:29;;;;;;;2.35;1.40;;;;;;;14.56;72.78;98890.27;1713623;81;21534;-77
2022/05/26 01:54:18;;;;;;;3.00;1.55;;;;;;;14.45;73.86;98889.66;1705549;81;21126;-77
2022/05/26 01:57:08;;;;;;;5.03;1.90;;;;;;;14.35;74.72;98890.72;1713036;81;21120;-77
2022/05/26 01:59:48;;;;;;;4.47;1.52;;;;;;;14.27;75.80;98889.06;1734506;81;21055;-76
2022/05/26 02:02:24;;;;;;;6.95;1.80;;;;;;;14.22;76.99;98885.06;1723684;81;20980;-76
2022/05/26 02:04:55;;;;;;;2.87;2.00;;;;;;;14.18;77.31;98887.55;1714922;82;21522;-76
2022/05/26 02:07:42;;;;;;;2.72;1.50;;;;;;;14.13;78.32;98885.22;1711393;81;21193;-76
2022/05/26 02:10:20;;;;;;;4.42;1.47;;;;;;;14.08;79.65;98883.36;1726364;81;20966;-76
2022/05/26 02:12:53;;;;;;;2.77;1.70;;;;;;;14.04;80.53;98879.27;1719072;81;21251;-76
2022/05/26 02:15:27;;;;;;;3.83;2.22;;;;;;;14.01;81.76;98882.08;1716368;81;20993;-76
2022/05/26 02:18:05;;;;;;;3.52;2.33;;;;;;;13.98;82.90;98880.99;1717170;81;20991;-76
2022/05/26 02:20:43;;;;;;;2.75;1.87;;;;;;;13.96;84.09;98881.09;1714877;81;21291;-76
2022/05/26 02:23:26;;;;;;;3.83;1.85;;;;;;;13.95;84.84;98875.95;1714473;81;21047;-76
2022/05/26 02:25:54;;;;;;;4.28;2.00;;;;;;;13.93;85.54;98877.83;1715479;81;21090;-76
2022/05/26 02:28:21;;;;;;;4.22;2.55;;;;;;;13.92;86.09;98880.91;1724089;81;21039;-76
2022/05/26 02:30:47;;;;;;;1.82;1.67;;;;;;;13.93;86.58;98878.67;1734076;81;20948;-77
2022/05/26 02:33:15;;;;;;;3.40;1.87;;;;;;;13.93;86.92;98888.28;1729004;81;21940;-77
2022/05/26 02:35:46;;;;;;;11.88;2.22;;;;;;;13.91;87.12;98896.22;1724905;81;21582;-76
2022/05/26 02:38:22;;;;;;;2.87;1.50;;;;;;;13.91;87.25;98884.92;1690171;82;21050;-77
2022/05/26 02:40:50;;;;;;;2.40;1.67;;;;;;;13.92;87.54;98874.38;1708479;81;21487;-77
2022/05/26 02:43:24;;;;;;;2.62;1.60;;;;;;;13.92;87.50;98875.68;1717422;81;21026;-76
2022/05/26 02:46:12;;;;;;;2.58;2.20;;;;;;;13.91;87.04;98874.47;1733597;81;21127;-76
2022/05/26 02:49:29;;;;;;;2.50;1.70;;;;;;;13.90;87.35;98880.16;1711489;81;21057;-76
2022/05/26 02:52:25;;;;;;;3.10;1.57;;;;;;;13.90;87.75;98885.86;1714345;81;21028;-76
2022/05/26 02:55:17;;;;;;;5.15;1.90;;;;;;;13.90;87.90;98896.32;1720589;81;21007;-77
2022/05/26 02:58:11;;;;;;;3.08;1.90;;;;;;;13.86;87.25;98874.76;1717504;81;21011;-76
2022/05/26 03:01:04;;;;;;;2.25;1.80;;;;;;;13.84;87.49;98877.09;1733703;81;21956;-76
2022/05/26 03:03:48;;;;;;;2.80;1.70;;;;;;;13.82;87.54;98873.73;1742461;81;21023;-76
2022/05/26 03:06:26;;;;;;;3.12;2.00;;;;;;;13.81;87.49;98889.89;1703555;83;20984;-76
2022/05/26 03:08:54;;;;;;;3.37;2.00;;;;;;;13.78;87.34;98881.80;1732834;81;21536;-76
2022/05/26 03:11:24;;;;;;;3.25;1.35;;;;;;;13.77;87.19;98869.67;1715755;82;21542;-76
2022/05/26 03:13:51;;;;;;;2.67;1.67;;;;;;;13.78;86.95;98875.27;1720849;81;21069;-76
2022/05/26 03:16:17;;;;;;;3.35;1.98;;;;;;;13.77;86.94;98881.44;1718131;81;20999;-76
2022/05/26 03:18:44;;;;;;;3.33;2.00;;;;;;;13.76;86.78;98884.14;1743080;80;20996;-77
2022/05/26 03:21:11;;;;;;;2.52;1.80;;;;;;;13.79;87.19;98876.08;1730280;81;21255;-76
2022/05/26 03:23:38;;;;;;;2.83;1.57;;;;;;;13.84;87.05;98876.62;1716956;81;21057;-76
2022/05/26 03:26:06;;;;;;;3.05;1.70;;;;;;;13.91;86.67;98871.39;1735347;81;21233;-76
2022/05/26 03:28:33;;;;;;;2.75;1.70;;;;;;;13.99;86.80;98882.17;1742184;81;20955;-76
2022/05/26 03:31:07;;;;;;;2.27;1.85;;;;;;;14.04;86.14;98887.95;1716429;81;21129;-76
2022/05/26 03:40:46;;;;;;;4.53;1.98;;;;;;;14.10;85.73;98899.80;1731993;81;21082;-77
2022/05/26 03:41:33;;;;;;;2.85;1.92;;;;;;;14.15;84.50;98892.50;1737966;81;21078;-77
2022/05/26 03:44:00;;;;;;;1.80;1.70;;;;;;;14.10;84.19;98883.64;1708784;81;21034;-76
2022/05/26 03:46:26;;;;;;;3.85;1.92;;;;;;;14.10;84.09;98885.41;1717596;80;21019;-77
2022/05/26 03:48:53;;;;;;;2.10;1.70;;;;;;;14.09;84.67;98890.27;1716930;81;21518;-77
2022/05/26 03:51:20;;;;;;;4.33;1.90;;;;;;;14.06;83.67;98887.38;1703998;81;21110;-77
2022/05/26 03:53:46;;;;;;;4.12;1.85;;;;;;;14.04;83.59;98891.88;1711419;81;21013;-76
2022/05/26 03:56:14;;;;;;;3.35;2.12;;;;;;;14.02;83.56;98895.05;1722780;81;21067;-78
2022/05/26 03:58:40;;;;;;;4.15;1.77;;;;;;;14.03;83.70;98888.89;1714478;82;21105;-77
2022/05/26 04:01:07;;;;;;;2.95;1.92;;;;;;;14.03;83.52;98888.05;1722098;81;21110;-69
2022/05/26 04:03:35;;;;;;;2.30;1.65;;;;;;;14.02;83.37;98892.44;1726093;81;21122;-70
2022/05/26 04:06:01;;;;;;;5.37;2.33;;;;;;;14.02;83.31;98886.37;1734583;81;20972;-70
2022/05/26 04:08:28;;;;;;;4.00;2.10;;;;;;;14.01;83.57;98896.45;1747231;81;20983;-69
2022/05/26 04:10:54;;;;;;;3.50;2.30;;;;;;;14.00;84.27;98892.16;1724521;81;21471;-70
2022/05/26 04:13:21;;;;;;;6.20;2.65;;;;;;;14.00;84.13;98891.69;1734221;81;21075;-69
2022/05/26 04:15:47;;;;;;;3.60;2.30;;;;;;;13.99;84.28;98893.94;1716489;81;21233;-69
2022/05/26 04:18:14;;;;;;;2.67;1.90;;;;;;;13.98;84.21;98899.30;1715183;81;21174;-68
2022/05/26 04:20:41;;;;;;;3.45;2.02;;;;;;;13.95;83.70;98905.55;1730442;81;21117;-76
2022/05/26 04:23:09;;;;;;;5.65;2.50;;;;;;;13.84;84.03;98910.61;1718402;81;21070;-76
2022/05/26 04:25:36;;;;;;;4.00;2.22;;;;;;;13.76;85.14;98916.81;1711104;81;21025;-76
2022/05/26 04:28:02;;;;;;;4.85;2.87;;;;;;;13.73;86.00;98908.69;1721734;81;21239;-76
2022/05/26 04:30:30;;;;;;;5.72;2.60;;;;;;;13.70;86.41;98910.66;1716855;82;21120;-76
2022/05/26 04:32:57;;;;;;;5.45;2.72;;;;;;;13.65;86.86;98915.32;1720049;81;21109;-79
2022/05/26 04:35:23;;;;;;;4.00;2.02;;;;;;;13.58;87.33;98924.03;1751650;79;21069;-77
2022/05/26 04:37:50;;;;;;;6.65;2.80;;;;;;;13.50;88.26;98924.13;1725802;81;20958;-76
2022/05/26 04:40:17;;;;;;;4.45;2.25;;;;;;;13.38;89.49;98932.27;1739881;81;21825;-77
2022/05/26 04:42:44;;;;;;;3.85;2.27;;;;;;;13.22;90.91;98932.33;1745097;81;21007;-77
2022/05/26 04:45:13;;;;;;;5.67;2.50;;;;;;;13.09;92.27;98936.59;1735138;81;21059;-77
2022/05/26 04:47:40;;;;;;;3.58;2.20;;;;;;;12.98;93.22;98929.89;1734910;81;21073;-79
2022/05/26 04:50:10;;;;;;;5.62;3.25;;;;;;;12.91;94.61;98932.02;1715486;82;21093;-79
2022/05/26 04:52:38;;;;;;;8.53;3.62;;;;;;;12.87;95.67;98930.51;1738562;81;21143;-77
2022/05/26 04:55:06;;;;;;;9.45;3.75;;;;;;;12.86;96.19;98928.83;1729274;82;21459;-77
2022/05/26 04:57:33;;;;;;;9.98;2.65;;;;;;;12.88;96.45;98924.83;1719714;81;21196;-79
2022/05/26 05:00:00;;;;;;;6.58;2.80;;;;;;;12.92;97.03;98924.56;1724514;81;21565;-82
2022/05/26 05:02:26;;;;;;;13.80;4.03;;;;;;;12.95;96.81;98924.38;1724506;81;21149;-79
2022/05/26 05:04:53;;;;;;;12.20;4.00;;;;;;;12.97;96.82;98925.13;1706362;81;22031;-78
2022/05/26 05:07:22;;;;;;;6.33;3.27;;;;;;;12.99;96.54;98924.55;1696543;81;21426;-78
2022/05/26 05:09:48;;;;;;;4.12;2.27;;;;;;;13.00;96.98;98930.14;1696969;81;21195;-79
2022/05/26 05:12:19;;;;;;;7.22;2.80;;;;;;;13.00;97.09;98927.53;1714142;81;20968;-79
2022/05/26 05:14:49;;;;;;;9.18;3.12;;;;;;;12.99;97.50;98928.46;1669479;83;20973;-76
2022/05/26 05:17:16;;;;;;;3.45;2.90;;;;;;;13.00;97.85;98923.61;1704061;81;21088;-78
2022/05/26 05:19:43;;;;;;;4.53;2.70;;;;;;;13.01;98.64;98925.30;1692863;82;21131;-77
2022/05/26 05:22:32;;;;;;;6.65;2.95;;;;;;;13.00;98.49;98931.45;1704797;82;21101;-78
2022/05/26 05:25:07;;;;;;;4.17;2.72;;;;;;;13.01;98.72;98921.84;1703218;82;21595;-79
2022/05/26 05:27:54;;;;;;;5.30;3.08;;;;;;;13.04;99.61;98927.73;1705430;82;21031;-78
2022/05/26 05:30:26;;;;;;;4.95;2.70;;;;;;;13.08;99.72;98912.72;1706317;82;21178;-76
2022/05/26 05:33:06;;;;;;;5.25;3.58;;;;;;;13.11;100.00;98917.30;1713319;81;21000;-79
2022/05/26 05:35:40;;;;;;;3.55;2.40;;;;;;;13.18;100.00;98914.36;1731985;81;21114;-78
2022/05/26 05:38:06;;;;;;;4.58;2.80;;;;;;;13.26;100.00;98906.41;1723890;81;21007;-77
2022/05/26 05:40:34;;;;;;;5.95;2.90;;;;;;;13.33;100.00;98914.72;1694085;81;21132;-78
2022/05/26 05:43:00;;;;;;;9.30;3.15;;;;;;;13.37;100.00;98920.97;1638146;83;21552;-75
2022/05/26 05:45:28;;;;;;;4.03;2.35;;;;;;;13.42;100.00;98925.89;1693178;81;21568;-80
2022/05/26 05:47:55;;;;;;;3.33;2.12;;;;;;;13.49;100.00;98915.91;1693466;82;21616;-77
2022/05/26 05:50:21;;;;;;;4.95;2.70;;;;;;;13.50;100.00;98917.13;1707507;81;21477;-77
2022/05/26 05:52:49;;;;;;;5.03;2.47;;;;;;;13.54;100.00;98911.25;1711278;81;21148;-76
2022/05/26 05:55:15;;;;;;;5.15;3.47;;;;;;;13.62;100.00;98917.66;1704935;81;21232;-77
2022/05/26 05:57:42;;;;;;;4.80;2.70;;;;;;;13.73;100.00;98912.61;1714629;81;22051;-76
2022/05/26 06:00:10;;;;;;;4.40;2.20;;;;;;;13.87;100.00;98912.19;1696601;82;21105;-77
2022/05/26 06:02:37;;;;;;;4.62;2.67;;;;;;;13.99;100.00;98915.32;1691145;82;21088;-77
2022/05/26 06:05:04;;;;;;;4.65;3.20;;;;;;;14.12;100.00;98914.45;1658256;82;20995;-77
2022/05/26 06:07:31;;;;;;;4.25;2.77;;;;;;;14.21;100.00;98918.23;1677629;81;21081;-78
2022/05/26 06:09:59;;;;;;;5.00;2.67;;;;;;;14.26;100.00;98919.25;1683188;81;21590;-76
2022/05/26 06:12:26;;;;;;;5.78;3.00;;;;;;;14.28;100.00;98922.61;1686030;82;21108;-78
2022/05/26 06:14:53;;;;;;;3.60;3.30;;;;;;;14.30;100.00;98925.97;1711814;82;21441;-77
2022/05/26 06:17:20;;;;;;;5.83;3.47;;;;;;;14.35;100.00;98922.59;1702035;81;21928;-77
2022/05/26 06:19:47;;;;;;;4.95;2.65;;;;;;;14.40;100.00;98927.02;1711386;81;21088;-76
2022/05/26 06:22:17;;;;;;;1.98;1.85;;;;;;;14.46;100.00;98937.97;1696571;82;21250;-77
2022/05/26 06:24:45;;;;;;;1.82;1.27;;;;;;;14.53;100.00;98942.81;1723266;81;21152;-76
2022/05/26 06:29:59;;;;;;;1.40;1.22;;;;;;;14.66;100.00;98947.12;1705648;82;21050;-76
2022/05/26 06:38:00;;;;;;;1.37;1.10;;;;;;;14.62;98.38;98950.88;1716598;81;21665;-76
2022/05/26 06:40:31;;;;;;;2.00;1.22;;;;;;;14.60;98.43;98949.30;1727226;79;20993;-76
2022/05/26 06:43:00;;;;;;;1.35;1.25;;;;;;;14.58;99.14;98954.66;1717985;81;22162;-77
2022/05/26 06:45:27;;;;;;;1.55;1.40;;;;;;;14.58;99.45;98953.82;1718346;82;21966;-78
2022/05/26 06:47:56;;;;;;;1.62;1.20;;;;;;;14.58;99.76;98954.66;1720450;81;20974;-76
2022/05/26 06:50:22;;;;;;;2.05;1.40;;;;;;;14.59;99.86;98958.12;1706704;80;21052;-77
2022/05/26 06:52:50;;;;;;;1.90;1.42;;;;;;;14.66;100.00;98952.83;1682566;83;21004;-77
2022/05/26 06:55:17;;;;;;;1.22;1.15;;;;;;;14.86;100.00;98970.66;1703253;81;21676;-78
2022/05/26 06:57:44;;;;;;;2.00;1.80;;;;;;;15.06;97.54;98965.39;1719567;81;21224;-76
2022/05/26 07:00:15;;;;;;;1.15;0.93;;;;;;;15.15;97.24;98972.17;1718171;81;21591;-76
2022/05/26 07:02:43;;;;;;;0.90;0.90;;;;;;;15.16;93.71;98977.78;1709866;81;21033;-78
2022/05/26 07:05:11;;;;;;;1.20;0.80;;;;;;;15.10;93.27;98977.34;1713799;81;21036;-77
2022/05/26 07:07:40;;;;;;;1.95;0.80;;;;;;;15.07;93.63;98985.41;1717831;81;20955;-76
2022/05/26 07:10:12;;;;;;;1.50;1.40;;;;;;;15.04;93.90;98983.83;1720362;80;21909;-78
2022/05/26 07:12:38;;;;;;;0.90;0.90;;;;;;;15.19;93.18;99000.78;1704745;81;21090;-74
2022/05/26 07:15:08;;;;;;;0.90;0.80;;;;;;;15.19;93.18;99000.78;1725698;81;21135;-75
2022/05/26 07:17:37;;;;;;;1.37;1.10;;;;;;;15.29;91.93;98988.25;1688458;83;21577;-76
2022/05/26 07:20:06;;;;;;;2.50;1.00;;;;;;;15.31;92.03;98995.54;1739563;81;21490;-76
2022/05/26 07:22:34;;;;;;;1.37;0.93;;;;;;;15.36;92.19;98998.69;1719231;81;21220;-76
2022/05/26 07:25:00;;;;;;;2.20;2.08;;;;;;;15.36;92.31;99003.93;1702050;81;21054;-77
2022/05/26 07:27:27;;;;;;;1.00;0.90;;;;;;;15.32;91.00;98998.52;1726508;79;21371;-77
2022/05/26 07:29:54;;;;;;;1.12;1.02;;;;;;;15.16;88.19;99013.61;1714238;79;21250;-77
2022/05/26 07:32:22;;;;;;;1.07;0.98;;;;;;;14.94;87.93;99026.46;1699939;81;21121;-78
2022/05/26 07:34:48;;;;;;;1.40;1.20;;;;;;;14.78;88.99;99024.86;1720233;81;21139;-75
2022/05/26 07:42:45;;;;;;;2.12;1.10;;;;;;;15.01;88.42;99031.17;1663425;83;21484;-77
2022/05/26 07:45:12;;;;;;;1.82;1.15;;;;;;;15.50;84.70;99043.13;1683786;83;21239;-75
2022/05/26 07:47:39;;;;;;;1.40;1.00;;;;;;;15.80;80.91;99032.33;1705355;81;21808;-79
2022/05/26 07:50:10;;;;;;;2.98;0.95;;;;;;;15.80;80.91;99032.33;1682893;82;21050;-77
2022/05/26 07:52:36;;;;;;;2.58;1.15;;;;;;;16.09;79.09;99028.98;1714065;81;21479;-78
2022/05/26 07:55:04;;;;;;;0.98;0.98;;;;;;;16.33;78.31;99036.05;1736740;80;21018;-76
2022/05/26 07:57:31;;;;;;;1.20;1.10;;;;;;;16.46;77.09;99032.90;1718763;81;21048;-76
2022/05/26 07:59:58;;;;;;;2.12;0.98;;;;;;;16.56;78.09;99037.86;1710643;81;21166;-76
2022/05/26 08:02:25;;;;;;;1.45;1.02;;;;;;;16.70;76.42;99034.25;1702910;81;21085;-75
2022/05/26 08:04:52;;;;;;;1.77;1.00;;;;;;;16.78;74.41;99047.19;1699143;82;21007;-76
2022/05/26 08:07:19;;;;;;;1.30;0.88;;;;;;;16.88;73.13;99054.74;1681706;83;21167;-79
2022/05/26 08:09:47;;;;;;;1.67;1.22;;;;;;;16.94;72.60;99056.09;1689085;83;21603;-78
2022/05/26 08:12:17;;;;;;;0.93;0.80;;;;;;;17.05;72.88;99063.16;1654546;83;21187;-76
2022/05/26 08:14:44;;;;;;;1.90;1.10;;;;;;;17.15;69.50;99061.06;1688525;83;20985;-75
2022/05/26 08:17:13;;;;;;;1.67;0.98;;;;;;;17.21;69.59;99063.20;1702281;82;21055;-74
2022/05/26 08:19:41;;;;;;;4.00;1.25;;;;;;;17.27;68.80;99063.70;1685917;83;21038;-75
2022/05/26 08:22:09;;;;;;;6.92;1.70;;;;;;;17.25;67.86;99066.92;1689999;83;20980;-78
2022/05/26 08:24:36;;;;;;;4.30;1.55;;;;;;;17.25;67.75;99058.56;1710319;81;21129;-76
2022/05/26 08:27:04;;;;;;;5.10;1.40;;;;;;;17.37;68.79;99055.50;1720602;82;21043;-76
2022/05/26 08:29:30;;;;;;;2.08;1.30;;;;;;;17.57;66.70;99057.45;1680786;82;21100;-75
2022/05/26 08:31:57;;;;;;;4.80;1.37;;;;;;;17.71;66.37;99050.67;1681459;82;21598;-74
2022/05/26 08:34:23;;;;;;;3.55;1.37;;;;;;;17.77;65.78;99064.67;1696107;82;21082;-77
2022/05/26 08:36:50;;;;;;;6.50;1.32;;;;;;;17.82;65.44;99065.61;1692952;83;21109;-73
2022/05/26 08:39:17;;;;;;;2.60;1.00;;;;;;;17.92;62.92;99069.22;1717238;82;21076;-74
2022/05/26 08:41:47;;;;;;;7.33;2.27;;;;;;;18.03;61.31;99082.36;1708495;82;21058;-74
2022/05/26 08:44:29;;;;;;;3.08;1.17;;;;;;;18.02;61.46;99072.79;1712730;82;22230;-74
2022/05/26 08:47:16;;;;;;;2.77;1.10;;;;;;;18.02;60.95;99079.84;1695675;82;21074;-78
2022/05/26 08:50:03;;;;;;;2.95;1.30;;;;;;;18.06;61.21;99073.39;1707816;82;21214;-74
2022/05/26 08:53:00;;;;;;;4.53;1.20;;;;;;;18.19;60.32;99092.52;1708565;82;22253;-76
2022/05/26 08:55:43;;;;;;;7.10;1.72;;;;;;;18.20;59.31;99075.29;1700372;82;21116;-73
2022/05/26 08:58:20;;;;;;;3.35;1.15;;;;;;;18.15;59.51;99073.52;1726975;82;21130;-76
2022/05/26 09:00:51;;;;;;;3.80;1.40;;;;;;;18.16;59.66;99084.89;1686512;82;21085;-77
2022/05/26 09:03:33;;;;;;;3.02;1.10;;;;;;;18.28;59.71;99075.17;1709355;82;21738;-78
2022/05/26 09:06:17;;;;;;;4.83;2.00;;;;;;;18.49;58.97;99074.78;1710578;82;21069;-74
2022/05/26 09:14:34;;;;;;;1.70;1.30;;;;;;;18.93;58.26;99086.55;1712300;82;21157;-77
2022/05/26 09:17:12;;;;;;;1.92;0.80;;;;;;;19.10;56.32;99104.92;1722063;82;21143;-74
2022/05/26 09:19:49;;;;;;;4.50;1.02;;;;;;;19.16;53.72;99089.09;1718949;82;21763;-76
2022/05/26 09:22:45;;;;;;;3.72;1.15;;;;;;;19.22;54.87;99095.99;1726752;82;20969;-75
2022/05/26 09:25:46;;;;;;;2.52;0.98;;;;;;;19.28;52.77;99088.91;1713104;82;21038;-76
2022/05/26 09:28:15;;;;;;;5.10;1.82;;;;;;;19.18;53.10;99092.44;1711246;82;21018;-78
2022/05/26 09:30:42;;;;;;;4.90;1.22;;;;;;;19.07;53.01;99099.90;1716694;81;21539;-76
2022/05/26 09:33:21;;;;;;;1.27;0.95;;;;;;;19.04;52.88;99083.50;1715401;81;21075;-76
2022/05/26 09:35:48;;;;;;;2.30;0.82;;;;;;;19.12;51.89;99089.82;1715758;81;21388;-74
2022/05/26 09:38:17;;;;;;;3.05;1.27;;;;;;;19.24;51.39;99084.84;1724656;81;21097;-75
2022/05/26 09:40:48;;;;;;;5.70;1.20;;;;;;;19.38;51.84;99096.06;1717965;82;21556;-76
2022/05/26 09:43:25;;;;;;;2.15;1.22;;;;;;;19.51;52.73;99092.29;1690860;83;21210;-74
2022/05/26 09:46:02;;;;;;;2.80;1.20;;;;;;;19.63;52.34;99082.97;1698286;83;21086;-68
2022/05/26 09:48:32;;;;;;;4.83;1.27;;;;;;;19.78;51.86;99081.69;1694965;83;21031;-80
2022/05/26 09:51:12;;;;;;;3.58;1.30;;;;;;;19.93;51.61;99087.80;1695834;83;20987;-71
2022/05/26 09:53:44;;;;;;;5.25;1.20;;;;;;;20.02;50.44;99084.00;1694740;83;21008;-75
2022/05/26 09:56:28;;;;;;;2.83;1.50;;;;;;;19.99;47.46;99086.42;1698228;83;21127;-74
2022/05/26 09:58:56;;;;;;;4.42;1.30;;;;;;;19.85;48.35;99075.73;1699215;82;20985;-69
2022/05/26 10:01:31;;;;;;;6.90;1.10;;;;;;;19.81;49.70;99081.40;1700473;83;21483;-78
2022/05/26 10:04:36;;;;;;;8.05;1.30;;;;;;;19.86;50.01;99084.49;1710508;83;21202;-73
2022/05/26 10:07:15;;;;;;;2.40;1.30;;;;;;;19.94;49.69;99080.72;1698105;83;20986;-72
2022/05/26 10:09:46;;;;;;;12.23;1.77;;;;;;;20.00;49.72;99074.89;1689140;83;21356;-72
2022/05/26 10:12:39;;;;;;;2.83;1.30;;;;;;;20.17;49.70;99072.97;1706259;83;20997;-81
2022/05/26 10:15:37;;;;;;;3.52;1.37;;;;;;;20.39;47.45;99069.28;1695427;82;20981;-80
2022/05/26 10:18:12;;;;;;;4.60;1.72;;;;;;;20.46;46.40;99074.88;1688347;83;21194;-77
2022/05/26 10:20:49;;;;;;;3.35;1.45;;;;;;;20.42;47.33;99070.83;1669686;84;21309;-87
2022/05/26 10:27:50;;;;;;;1.98;1.27;;;;;;;20.49;48.31;99078.56;1678692;83;21113;-80
2022/05/26 10:42:28;;;;;;;2.20;1.65;;;;;;;20.69;47.26;99083.41;1698224;81;21028;-77
2022/05/26 10:52:07;;;;;;;3.10;1.30;;;;;;;20.94;45.59;99074.47;1652653;85;21023;-76
2022/05/26 10:59:05;;;;;;;2.42;1.27;;;;;;;21.29;45.45;99089.80;1646400;84;21059;-85
2022/05/26 11:05:36;;;;;;;5.90;1.27;;;;;;;21.19;43.03;99083.62;1679554;83;21484;-74
2022/05/26 11:08:37;;;;;;;4.83;1.60;;;;;;;21.28;43.30;99088.61;1691178;83;21100;-74
2022/05/26 11:11:29;;;;;;;1.70;1.20;;;;;;;21.44;42.60;99078.77;1703055;83;21452;-73
2022/05/26 11:17:24;;;;;;;2.08;1.42;;;;;;;21.56;42.90;99075.00;1688189;82;20960;-76
2022/05/26 11:20:05;;;;;;;3.62;1.20;;;;;;;21.64;43.49;99090.50;1696595;83;21016;-75
2022/05/26 11:22:32;;;;;;;6.60;1.67;;;;;;;21.71;42.35;99083.31;1681183;82;21431;-75
2022/05/26 11:25:00;;;;;;;2.30;1.30;;;;;;;21.70;41.57;99097.04;1697737;82;21087;-75
2022/05/26 11:27:38;;;;;;;1.45;1.10;;;;;;;21.65;40.14;99092.17;1696406;83;21635;-78
2022/05/26 11:36:07;;;;;;;1.67;1.20;;;;;;;21.61;40.41;99100.04;1693711;83;21019;-74
2022/05/26 11:38:44;;;;;;;3.42;1.37;;;;;;;21.63;40.93;99086.18;1687930;83;21047;-75
2022/05/26 11:41:28;;;;;;;2.83;1.25;;;;;;;21.58;40.74;99086.28;1665270;83;21451;-75
